createdAt,value
2023-04-09T00:02:19.150Z,22.00
2023-04-09T00:04:48.052Z,16.75
2023-04-09T00:07:16.896Z,17.52
2023-04-09T00:09:45.682Z,20.25
2023-04-09T00:12:14.424Z,15.50
2023-04-09T00:14:44.551Z,14.63
2023-04-09T00:17:13.222Z,16.30
2023-04-09T00:19:41.879Z,14.43
2023-04-09T00:22:11.029Z,18.73
2023-04-09T00:24:39.741Z,21.23
2023-04-09T00:27:08.424Z,13.45
2023-04-09T00:29:37.042Z,10.05
2023-04-09T00:32:07.642Z,13.63
2023-04-09T00:34:36.717Z,13.18
2023-04-09T00:37:05.628Z,10.77
2023-04-09T00:39:34.330Z,14.32
2023-04-09T00:42:03.624Z,15.38
2023-04-09T00:44:32.753Z,11.05
2023-04-09T00:47:01.775Z,15.02
2023-04-09T00:49:32.158Z,13.55
2023-04-09T00:52:00.924Z,13.77
2023-04-09T00:54:29.734Z,16.38
2023-04-09T00:56:59.337Z,12.82
2023-04-09T00:59:28.149Z,19.98
2023-04-09T01:01:56.987Z,16.50
2023-04-09T01:04:26.573Z,19.67
2023-04-09T01:06:58.790Z,12.63
2023-04-09T01:09:30.502Z,16.30
2023-04-09T01:12:03.949Z,15.90
2023-04-09T01:14:36.903Z,15.98
2023-04-09T01:17:18.300Z,12.60
2023-04-09T01:19:53.184Z,11.55
2023-04-09T01:22:31.670Z,13.02
2023-04-09T01:25:05.945Z,14.55
2023-04-09T01:27:48.385Z,13.98
2023-04-09T01:30:19.867Z,15.25
2023-04-09T01:32:48.653Z,17.92
2023-04-09T01:35:17.461Z,20.77
2023-04-09T01:37:46.266Z,17.83
2023-04-09T01:40:15.184Z,18.13
2023-04-09T01:42:44.224Z,14.63
2023-04-09T01:45:14.170Z,12.50
2023-04-09T01:47:44.550Z,11.20
2023-04-09T01:50:13.579Z,14.10
2023-04-09T01:52:42.526Z,13.70
2023-04-09T01:55:11.404Z,13.93
2023-04-09T01:57:40.070Z,11.07
2023-04-09T02:00:10.413Z,12.35
2023-04-09T02:02:48.791Z,12.48
2023-04-09T02:05:20.280Z,10.65
2023-04-09T02:07:51.999Z,15.95
2023-04-09T02:10:21.743Z,14.75
2023-04-09T02:12:51.274Z,12.52
2023-04-09T02:15:21.097Z,20.63
2023-04-09T02:17:51.491Z,12.40
2023-04-09T02:20:20.563Z,19.73
2023-04-09T02:22:49.361Z,11.73
2023-04-09T02:25:18.221Z,10.88
2023-04-09T02:27:46.939Z,10.90
2023-04-09T02:30:16.009Z,9.10
2023-04-09T02:32:44.821Z,7.40
2023-04-09T02:35:15.396Z,5.53
2023-04-09T02:37:44.428Z,15.30
2023-04-09T02:40:13.654Z,8.85
2023-04-09T02:42:42.391Z,8.65
2023-04-09T02:45:11.573Z,14.93
2023-04-09T02:47:41.076Z,12.65
2023-04-09T02:50:10.344Z,3.95
2023-04-09T02:52:49.028Z,9.38
2023-04-09T02:55:18.168Z,14.68
2023-04-09T02:57:46.868Z,8.32
2023-04-09T03:00:15.867Z,11.50
2023-04-09T03:02:45.101Z,9.38
2023-04-09T03:05:13.892Z,10.30
2023-04-09T03:07:42.666Z,11.45
2023-04-09T03:10:13.145Z,5.15
2023-04-09T03:12:44.533Z,9.52
2023-04-09T03:15:13.398Z,8.95
2023-04-09T03:17:42.111Z,9.73
2023-04-09T03:20:11.226Z,4.97
2023-04-09T03:22:41.249Z,4.45
2023-04-09T03:25:23.440Z,7.75
2023-04-09T03:27:55.523Z,6.75
2023-04-09T03:30:39.342Z,4.88
2023-04-09T03:33:08.640Z,11.02
2023-04-09T03:35:47.289Z,5.32
2023-04-09T03:38:17.704Z,11.52
2023-04-09T03:40:47.933Z,6.43
2023-04-09T03:43:16.590Z,5.45
2023-04-09T03:45:50.934Z,4.40
2023-04-09T03:48:28.239Z,8.32
2023-04-09T03:50:58.887Z,11.45
2023-04-09T03:53:35.767Z,7.90
2023-04-09T03:56:09.643Z,6.30
2023-04-09T03:58:39.185Z,8.88
2023-04-09T04:01:09.978Z,5.18
2023-04-09T04:03:43.925Z,5.70
2023-04-09T04:06:21.969Z,10.80
2023-04-09T04:09:02.141Z,12.23
2023-04-09T04:11:43.664Z,9.02
2023-04-09T04:14:12.574Z,10.32
2023-04-09T04:16:43.967Z,5.43
2023-04-09T04:19:15.586Z,5.28
2023-04-09T04:21:51.829Z,2.28
2023-04-09T04:24:20.603Z,3.20
2023-04-09T04:26:51.230Z,3.20
2023-04-09T04:29:21.965Z,3.25
2023-04-09T04:31:57.216Z,4.20
2023-04-09T04:34:29.299Z,1.90
2023-04-09T04:37:11.190Z,2.65
2023-04-09T04:39:40.502Z,4.90
2023-04-09T04:42:14.474Z,5.45
2023-04-09T04:44:44.183Z,3.25
2023-04-09T04:47:33.216Z,10.63
2023-04-09T04:50:02.007Z,7.32
2023-04-09T04:52:38.869Z,7.03
2023-04-09T04:55:08.422Z,12.05
2023-04-09T04:57:38.571Z,10.43
2023-04-09T05:00:07.718Z,7.43
2023-04-09T05:02:37.337Z,9.73
2023-04-09T05:05:35.480Z,9.32
2023-04-09T05:08:04.198Z,6.18
2023-04-09T05:10:33.116Z,10.50
2023-04-09T05:13:03.314Z,5.72
2023-04-09T05:15:40.546Z,8.13
2023-04-09T05:18:09.857Z,1.98
2023-04-09T05:20:38.815Z,2.92
2023-04-09T05:23:12.542Z,2.70
2023-04-09T05:25:50.613Z,9.10
2023-04-09T05:28:28.818Z,2.33
2023-04-09T05:31:12.805Z,4.63
2023-04-09T05:33:47.306Z,6.30
2023-04-09T05:36:22.176Z,5.43
2023-04-09T05:38:51.140Z,4.15
2023-04-09T05:41:20.019Z,7.95
2023-04-09T05:44:18.803Z,3.20
2023-04-09T05:46:47.890Z,6.97
2023-04-09T05:49:20.339Z,4.35
2023-04-09T05:51:52.845Z,11.00
2023-04-09T05:54:27.516Z,5.40
2023-04-09T05:56:56.468Z,5.68
2023-04-09T05:59:27.115Z,4.53
2023-04-09T06:01:56.225Z,6.05
2023-04-09T06:04:25.580Z,4.30
2023-04-09T06:06:54.338Z,7.07
2023-04-09T06:09:23.030Z,4.40
2023-04-09T06:11:51.650Z,7.30
2023-04-09T06:14:20.293Z,3.67
2023-04-09T06:16:50.360Z,3.30
2023-04-09T06:19:19.068Z,3.83
2023-04-09T06:21:47.896Z,3.33
2023-04-09T06:24:16.662Z,6.30
2023-04-09T06:26:45.984Z,2.80
2023-04-09T06:29:15.036Z,3.38
2023-04-09T06:31:43.863Z,3.83
2023-04-09T06:34:13.917Z,3.60
2023-04-09T06:36:44.012Z,4.32
2023-04-09T06:39:12.971Z,2.38
2023-04-09T06:41:41.779Z,2.58
2023-04-09T06:44:24.359Z,5.78
2023-04-09T06:46:53.222Z,1.80
2023-04-09T06:49:23.394Z,7.40
2023-04-09T06:51:53.660Z,19.35
2023-04-09T06:54:22.387Z,3.78
2023-04-09T06:56:51.897Z,4.65
2023-04-09T06:59:20.996Z,3.85
2023-04-09T07:01:51.434Z,4.55
2023-04-09T07:04:21.370Z,1.73
2023-04-09T07:06:51.630Z,3.92
2023-04-09T07:09:20.425Z,7.65
2023-04-09T07:11:49.158Z,5.55
2023-04-09T07:14:17.888Z,7.38
2023-04-09T07:16:46.918Z,5.28
2023-04-09T07:19:15.667Z,7.13
2023-04-09T07:21:44.290Z,4.43
2023-04-09T07:24:14.233Z,4.65
2023-04-09T07:26:42.903Z,2.85
2023-04-09T07:29:11.629Z,9.43
2023-04-09T07:31:40.499Z,4.32
2023-04-09T07:34:09.330Z,6.97
2023-04-09T07:36:37.931Z,21.15
2023-04-09T07:39:06.797Z,7.70
2023-04-09T07:41:37.547Z,4.95
2023-04-09T07:44:06.512Z,4.95
2023-04-09T07:46:35.332Z,4.10
2023-04-09T07:49:04.072Z,5.28
2023-04-09T07:51:32.704Z,7.05
2023-04-09T07:54:01.367Z,5.13
2023-04-09T07:56:30.162Z,3.28
2023-04-09T07:59:00.266Z,8.18
2023-04-09T08:01:29.066Z,5.22
2023-04-09T08:03:57.905Z,9.50
2023-04-09T08:06:27.797Z,6.70
2023-04-09T08:08:56.563Z,7.90
2023-04-09T08:11:26.391Z,3.78
2023-04-09T08:13:55.239Z,6.55
2023-04-09T08:16:25.449Z,6.35
2023-04-09T08:18:54.398Z,4.97
2023-04-09T08:21:23.411Z,4.05
2023-04-09T08:23:52.546Z,6.47
2023-04-09T08:26:22.420Z,7.40
2023-04-09T08:28:52.269Z,6.28
2023-04-09T08:31:21.157Z,6.85
2023-04-09T08:33:51.418Z,5.32
2023-04-09T08:36:20.118Z,3.45
2023-04-09T08:38:48.861Z,4.35
2023-04-09T08:41:21.533Z,4.75
2023-04-09T08:43:57.621Z,5.88
2023-04-09T08:46:27.418Z,5.75
2023-04-09T08:48:57.866Z,5.60
2023-04-09T08:51:28.806Z,8.80
2023-04-09T08:53:58.406Z,4.50
2023-04-09T08:56:27.590Z,5.18
2023-04-09T08:58:57.176Z,5.07
2023-04-09T09:01:27.074Z,6.88
2023-04-09T09:04:01.558Z,3.00
2023-04-09T09:06:32.872Z,5.43
2023-04-09T09:09:02.486Z,5.38
2023-04-09T09:11:31.469Z,7.43
2023-04-09T09:14:00.428Z,6.97
2023-04-09T09:16:29.248Z,4.63
2023-04-09T09:18:58.126Z,2.92
2023-04-09T09:21:29.266Z,5.45
2023-04-09T09:23:58.468Z,10.75
2023-04-09T09:26:28.769Z,4.13
2023-04-09T09:28:58.914Z,5.18
2023-04-09T09:31:27.951Z,3.67
2023-04-09T09:33:57.002Z,3.20
2023-04-09T09:36:36.976Z,5.45
2023-04-09T09:39:10.460Z,1.73
2023-04-09T09:41:39.661Z,3.28
2023-04-09T09:44:08.526Z,5.50
2023-04-09T09:46:38.535Z,2.28
2023-04-09T09:49:07.439Z,15.18
2023-04-09T09:51:38.225Z,3.78
2023-04-09T09:54:08.980Z,3.20
2023-04-09T09:56:39.508Z,1.23
2023-04-09T09:59:09.626Z,11.15
2023-04-09T10:01:38.454Z,3.03
2023-04-09T10:04:08.720Z,33.55
2023-04-09T10:06:38.844Z,9.95
2023-04-09T10:09:08.139Z,3.47
2023-04-09T10:11:38.044Z,5.80
2023-04-09T10:14:06.900Z,1.83
2023-04-09T10:16:36.137Z,2.25
2023-04-09T10:19:05.134Z,3.95
2023-04-09T10:21:36.958Z,2.22
2023-04-09T10:24:08.216Z,2.28
2023-04-09T10:26:38.082Z,0.50
2023-04-09T10:29:13.831Z,0.95
2023-04-09T10:31:56.062Z,4.15
2023-04-09T10:34:25.537Z,1.00
2023-04-09T10:36:55.385Z,3.50
2023-04-09T10:39:28.215Z,1.95
2023-04-09T10:41:58.256Z,4.25
2023-04-09T10:44:28.139Z,1.10
2023-04-09T10:46:57.264Z,2.88
2023-04-09T10:49:26.569Z,2.40
2023-04-09T10:51:55.777Z,2.03
2023-04-09T10:54:46.148Z,1.15
2023-04-09T10:57:24.581Z,2.33
2023-04-09T10:59:54.107Z,3.67
2023-04-09T11:02:37.581Z,3.75
2023-04-09T11:05:08.914Z,5.50
2023-04-09T11:07:38.694Z,8.95
2023-04-09T11:10:08.096Z,3.13
2023-04-09T11:12:38.207Z,4.85
2023-04-09T11:15:07.255Z,1.27
2023-04-09T11:17:37.910Z,2.15
2023-04-09T11:20:07.062Z,3.45
2023-04-09T11:22:35.866Z,4.68
2023-04-09T11:25:04.673Z,5.10
2023-04-09T11:27:33.445Z,1.95
2023-04-09T11:30:03.938Z,1.80
2023-04-09T11:32:32.859Z,17.35
2023-04-09T11:35:01.496Z,2.08
2023-04-09T11:37:30.286Z,2.67
2023-04-09T11:39:58.983Z,8.50
2023-04-09T11:42:27.703Z,2.67
2023-04-09T11:44:56.433Z,1.58
2023-04-09T11:47:27.378Z,5.38
2023-04-09T11:49:56.194Z,3.33
2023-04-09T11:52:24.885Z,1.30
2023-04-09T11:54:53.566Z,1.15
2023-04-09T11:57:22.337Z,2.25
2023-04-09T11:59:51.022Z,5.38
2023-04-09T12:02:20.275Z,1.77
2023-04-09T12:04:53.807Z,1.92
2023-04-09T12:07:22.654Z,1.98
2023-04-09T12:09:51.250Z,1.05
2023-04-09T12:12:20.515Z,2.83
2023-04-09T12:14:51.970Z,2.83
2023-04-09T12:17:22.588Z,2.60
2023-04-09T12:19:51.313Z,4.80
2023-04-09T12:22:21.503Z,3.22
2023-04-09T12:24:50.574Z,3.10
2023-04-09T12:27:19.379Z,1.77
2023-04-09T12:29:48.106Z,5.47
2023-04-09T12:32:16.985Z,6.47
2023-04-09T12:34:47.474Z,2.78
2023-04-09T12:37:16.142Z,3.60
2023-04-09T12:39:46.124Z,3.95
2023-04-09T12:42:14.862Z,1.98
2023-04-09T12:44:43.562Z,1.52
2023-04-09T12:47:12.246Z,3.50
2023-04-09T12:49:45.170Z,6.80
2023-04-09T12:52:14.048Z,5.30
2023-04-09T12:54:42.694Z,1.35
2023-04-09T12:57:12.883Z,7.30
2023-04-09T12:59:41.614Z,8.75
2023-04-09T13:02:10.490Z,3.75
2023-04-09T13:04:39.323Z,1.45
2023-04-09T13:07:08.313Z,6.85
2023-04-09T13:09:37.220Z,1.95
2023-04-09T13:12:06.108Z,2.58
2023-04-09T13:14:36.458Z,3.40
2023-04-09T13:17:05.256Z,3.60
2023-04-09T13:19:33.943Z,3.75
2023-04-09T13:22:02.688Z,3.45
2023-04-09T13:24:31.360Z,6.10
2023-04-09T13:27:00.055Z,1.35
2023-04-09T13:29:29.473Z,3.35
2023-04-09T13:32:01.803Z,4.22
2023-04-09T13:34:30.506Z,2.75
2023-04-09T13:36:59.112Z,0.85
2023-04-09T13:39:27.901Z,3.20
2023-04-09T13:41:56.787Z,5.57
2023-04-09T13:44:25.509Z,1.67
2023-04-09T13:46:54.228Z,3.85
2023-04-09T13:49:24.603Z,5.93
2023-04-09T13:51:53.414Z,1.65
2023-04-09T13:54:22.229Z,2.95
2023-04-09T13:56:51.319Z,3.53
2023-04-09T13:59:22.131Z,6.15
2023-04-09T14:01:51.032Z,2.95
2023-04-09T14:04:19.825Z,2.78
2023-04-09T14:06:49.936Z,4.45
2023-04-09T14:09:18.657Z,4.13
2023-04-09T14:11:47.578Z,2.72
2023-04-09T14:14:16.673Z,2.47
2023-04-09T14:16:45.529Z,3.50
2023-04-09T14:19:14.214Z,5.22
2023-04-09T14:21:42.932Z,1.40
2023-04-09T14:24:13.051Z,3.28
2023-04-09T14:26:41.848Z,2.70
2023-04-09T14:29:10.972Z,4.10
2023-04-09T14:31:41.844Z,2.35
2023-04-09T14:34:10.707Z,3.78
2023-04-09T14:36:39.366Z,4.57
2023-04-09T14:39:08.034Z,4.93
2023-04-09T14:41:38.091Z,1.40
2023-04-09T14:44:06.841Z,3.28
2023-04-09T14:46:35.649Z,4.28
2023-04-09T14:49:04.440Z,4.25
2023-04-09T14:51:33.146Z,3.70
2023-04-09T14:54:02.141Z,14.25
2023-04-09T14:56:31.025Z,4.72
2023-04-09T14:59:01.163Z,6.50
2023-04-09T15:01:31.192Z,3.03
2023-04-09T15:04:01.528Z,2.85
2023-04-09T15:06:31.384Z,3.15
2023-04-09T15:09:00.104Z,3.17
2023-04-09T15:11:29.454Z,6.85
2023-04-09T15:13:58.329Z,2.67
2023-04-09T15:16:29.169Z,4.30
2023-04-09T15:19:00.022Z,4.78
2023-04-09T15:21:28.740Z,3.33
2023-04-09T15:23:59.037Z,3.88
2023-04-09T15:26:28.647Z,4.95
2023-04-09T15:29:03.313Z,4.25
2023-04-09T15:31:33.428Z,3.22
2023-04-09T15:34:02.203Z,5.10
2023-04-09T15:36:31.546Z,3.28
2023-04-09T15:39:00.465Z,6.68
2023-04-09T15:41:32.063Z,5.55
2023-04-09T15:44:00.852Z,3.78
2023-04-09T15:46:29.574Z,2.70
2023-04-09T15:48:59.615Z,7.90
2023-04-09T15:51:28.313Z,3.35
2023-04-09T15:53:56.922Z,6.13
2023-04-09T15:56:25.594Z,6.85
2023-04-09T15:58:54.487Z,2.97
2023-04-09T16:01:23.492Z,3.28
2023-04-09T16:03:52.908Z,3.78
2023-04-09T16:06:23.331Z,2.78
2023-04-09T16:08:52.276Z,7.50
2023-04-09T16:11:21.116Z,4.13
2023-04-09T16:13:49.746Z,2.90
2023-04-09T16:16:18.561Z,3.40
2023-04-09T16:18:47.626Z,3.00
2023-04-09T16:21:16.707Z,6.57
2023-04-09T16:23:46.739Z,6.78
2023-04-09T16:26:15.516Z,1.63
2023-04-09T16:28:44.659Z,1.50
2023-04-09T16:31:13.359Z,2.55
2023-04-09T16:33:42.018Z,2.35
2023-04-09T16:36:10.823Z,3.58
2023-04-09T16:38:39.583Z,4.07
2023-04-09T16:41:09.701Z,4.13
2023-04-09T16:43:38.308Z,2.67
2023-04-09T16:46:07.682Z,6.20
2023-04-09T16:48:41.518Z,1.90
2023-04-09T16:51:10.413Z,7.60
2023-04-09T16:53:40.115Z,2.22
2023-04-09T16:56:10.806Z,8.85
2023-04-09T16:58:39.891Z,14.25
2023-04-09T17:01:08.563Z,6.13
2023-04-09T17:03:37.516Z,1.92
2023-04-09T17:06:06.322Z,2.42
2023-04-09T17:08:36.476Z,4.63
2023-04-09T17:11:05.254Z,1.60
2023-04-09T17:13:36.183Z,4.03
2023-04-09T17:16:05.023Z,3.15
2023-04-09T17:18:34.616Z,1.83
2023-04-09T17:21:03.419Z,6.10
2023-04-09T17:23:32.515Z,1.70
2023-04-09T17:26:01.299Z,1.77
2023-04-09T17:28:30.096Z,2.35
2023-04-09T17:31:00.188Z,2.83
2023-04-09T17:33:28.979Z,5.25
2023-04-09T17:35:57.763Z,5.13
2023-04-09T17:38:27.040Z,2.60
2023-04-09T17:40:55.926Z,5.22
2023-04-09T17:43:28.476Z,4.10
2023-04-09T17:45:57.421Z,3.95
2023-04-09T17:48:30.746Z,3.75
2023-04-09T17:51:00.724Z,7.05
2023-04-09T17:53:29.450Z,11.57
2023-04-09T17:55:58.342Z,5.75
2023-04-09T17:58:27.100Z,7.00
2023-04-09T18:00:55.931Z,5.22
2023-04-09T18:03:25.787Z,2.17
2023-04-09T18:05:56.241Z,3.80
2023-04-09T18:08:25.159Z,11.50
2023-04-09T18:11:04.968Z,9.73
2023-04-09T18:13:39.958Z,6.80
2023-04-09T18:16:10.585Z,5.13
2023-04-09T18:18:39.567Z,4.82
2023-04-09T18:21:09.867Z,5.63
2023-04-09T18:23:40.134Z,5.65
2023-04-09T18:26:08.924Z,6.68
2023-04-09T18:28:37.579Z,8.20
2023-04-09T18:31:06.400Z,5.93
2023-04-09T18:33:35.289Z,6.07
2023-04-09T18:36:04.049Z,12.23
2023-04-09T18:38:34.697Z,4.55
2023-04-09T18:41:03.473Z,12.95
2023-04-09T18:43:32.232Z,23.02
2023-04-09T18:46:01.383Z,13.00
2023-04-09T18:48:30.262Z,13.90
2023-04-09T18:50:59.051Z,19.80
2023-04-09T18:53:27.742Z,14.23
2023-04-09T18:55:57.943Z,11.68
2023-04-09T18:58:27.252Z,10.05
2023-04-09T19:00:56.722Z,12.98
2023-04-09T19:03:27.118Z,13.82
2023-04-09T19:05:57.589Z,26.73
2023-04-09T19:08:27.328Z,22.35
2023-04-09T19:10:56.372Z,23.75
2023-04-09T19:13:26.542Z,19.05
2023-04-09T19:15:57.035Z,12.63
2023-04-09T19:18:26.655Z,22.98
2023-04-09T19:20:55.936Z,20.20
2023-04-09T19:23:24.750Z,15.15
2023-04-09T19:25:55.339Z,15.35
2023-04-09T19:28:24.441Z,17.52
2023-04-09T19:30:54.521Z,9.50
2023-04-09T19:33:23.566Z,23.58
2023-04-09T19:35:52.772Z,15.82
2023-04-09T19:38:22.145Z,14.18
2023-04-09T19:40:51.300Z,17.88
2023-04-09T19:43:20.006Z,13.93
2023-04-09T19:45:48.662Z,13.90
2023-04-09T19:48:18.695Z,12.90
2023-04-09T19:50:48.433Z,12.75
2023-04-09T19:53:17.189Z,15.43
2023-04-09T19:55:46.263Z,11.57
2023-04-09T19:58:15.372Z,13.00
2023-04-09T20:00:44.172Z,8.50
2023-04-09T20:03:13.203Z,18.33
2023-04-09T20:05:43.415Z,14.23
2023-04-09T20:08:15.149Z,14.95
2023-04-09T20:10:46.452Z,18.42
2023-04-09T20:13:15.243Z,12.75
2023-04-09T20:15:44.245Z,11.73
2023-04-09T20:18:13.323Z,16.90
2023-04-09T20:20:43.417Z,16.73
2023-04-09T20:23:12.250Z,22.17
2023-04-09T20:25:40.875Z,13.45
2023-04-09T20:28:09.968Z,13.85
2023-04-09T20:30:38.719Z,21.48
2023-04-09T20:33:07.396Z,15.13
2023-04-09T20:35:36.878Z,16.08
2023-04-09T20:38:06.977Z,13.90
2023-04-09T20:40:37.575Z,9.40
2023-04-09T20:43:06.831Z,13.38
2023-04-09T20:45:35.905Z,14.43
2023-04-09T20:48:04.830Z,15.18
2023-04-09T20:50:34.750Z,15.02
2023-04-09T20:53:03.597Z,12.90
2023-04-09T20:55:33.766Z,24.00
2023-04-09T20:58:02.901Z,16.48
2023-04-09T21:00:31.633Z,14.80
2023-04-09T21:03:00.467Z,17.10
2023-04-09T21:05:29.381Z,17.08
2023-04-09T21:07:58.074Z,21.48
2023-04-09T21:10:26.925Z,17.55
2023-04-09T21:12:57.172Z,26.42
2023-04-09T21:15:26.190Z,25.10
2023-04-09T21:17:54.885Z,17.92
2023-04-09T21:20:23.619Z,15.48
2023-04-09T21:22:53.220Z,25.70
2023-04-09T21:25:22.318Z,16.00
2023-04-09T21:27:50.946Z,14.55
2023-04-09T21:30:21.211Z,14.27
2023-04-09T21:32:50.160Z,15.02
2023-04-09T21:35:18.994Z,11.40
2023-04-09T21:37:48.085Z,11.57
2023-04-09T21:40:17.830Z,19.13
2023-04-09T21:42:47.061Z,14.40
2023-04-09T21:45:16.291Z,14.98
2023-04-09T21:47:46.903Z,13.48
2023-04-09T21:50:15.736Z,12.13
2023-04-09T21:52:46.471Z,9.57
2023-04-09T21:55:15.406Z,13.38
2023-04-09T21:57:44.102Z,12.30
2023-04-09T22:00:16.156Z,10.23
2023-04-09T22:02:46.318Z,18.40
2023-04-09T22:05:15.199Z,14.05
2023-04-09T22:07:44.636Z,13.15
2023-04-09T22:10:13.613Z,13.90
2023-04-09T22:12:42.336Z,17.85
2023-04-09T22:15:11.958Z,14.93
2023-04-09T22:17:40.727Z,15.80
2023-04-09T22:20:11.295Z,13.90
2023-04-09T22:22:41.983Z,12.00
2023-04-09T22:25:12.028Z,16.60
2023-04-09T22:27:41.026Z,9.82
2023-04-09T22:30:10.328Z,18.88
2023-04-09T22:32:39.053Z,25.92
2023-04-09T22:35:08.147Z,16.60
2023-04-09T22:37:38.234Z,22.15
2023-04-09T22:40:13.984Z,12.85
2023-04-09T22:42:43.270Z,19.52
2023-04-09T22:45:12.357Z,17.95
2023-04-09T22:47:41.221Z,20.48
2023-04-09T22:50:11.198Z,21.35
2023-04-09T22:52:41.279Z,21.00
2023-04-09T22:55:11.062Z,14.52
2023-04-09T22:57:42.754Z,12.65
2023-04-09T23:00:11.724Z,12.32
2023-04-09T23:02:40.830Z,18.90
2023-04-09T23:05:10.591Z,14.75
2023-04-09T23:07:42.952Z,14.88
2023-04-09T23:10:14.218Z,15.75
2023-04-09T23:12:42.857Z,13.60
2023-04-09T23:15:12.005Z,16.38
2023-04-09T23:17:41.596Z,17.25
2023-04-09T23:20:11.481Z,21.13
2023-04-09T23:22:41.894Z,18.08
2023-04-09T23:25:11.043Z,18.55
2023-04-09T23:27:39.770Z,18.50
2023-04-09T23:30:09.445Z,15.98
2023-04-09T23:32:38.258Z,16.27
2023-04-09T23:35:07.401Z,14.40
2023-04-09T23:37:36.056Z,14.75
2023-04-09T23:40:06.797Z,12.20
2023-04-09T23:42:35.606Z,10.30
2023-04-09T23:45:05.136Z,17.65
2023-04-09T23:47:34.144Z,12.07
2023-04-09T23:50:04.994Z,19.67
2023-04-09T23:52:33.968Z,12.45
2023-04-09T23:55:02.670Z,14.13
2023-04-09T23:57:33.087Z,15.65
